Time;durP1;ratioP1;P1;durP2;ratioP2;P2;SDS_P1;SDS_P2;PMS_P1;PMS_P2;Temp;Humidity;BMP_temperature;BMP_pressure;BME280_temperature;BME280_humidity;BME280_pressure;Samples;Min_cycle;Max_cycle;Signal;HPM_P1;HPM_P2
2023/04/20 00:00:47;;;;;;;12.17;6.60;;;;;;;3.63;100.00;93717.41;5009709;28;20407;-60
2023/04/20 00:03:13;;;;;;;11.23;6.45;;;;;;;3.72;100.00;93715.94;5011113;28;20046;-60
2023/04/20 00:05:40;;;;;;;12.32;7.03;;;;;;;3.78;100.00;93705.50;5010803;28;20050;-60
2023/04/20 00:08:07;;;;;;;9.95;6.22;;;;;;;3.85;100.00;93702.06;5011029;28;20450;-60
2023/04/20 00:10:34;;;;;;;12.65;7.47;;;;;;;3.58;100.00;93707.66;4998135;28;20056;-60
2023/04/20 00:13:00;;;;;;;11.03;6.77;;;;;;;3.69;100.00;93699.63;5010841;28;20431;-60
2023/04/20 00:15:28;;;;;;;11.63;6.80;;;;;;;3.55;100.00;93695.63;5011094;28;20107;-60
2023/04/20 00:17:55;;;;;;;11.75;6.90;;;;;;;3.59;100.00;93693.72;5010100;28;20663;-60
2023/04/20 00:20:22;;;;;;;12.98;7.30;;;;;;;3.61;100.00;93690.66;5010943;28;20052;-60
2023/04/20 00:22:49;;;;;;;26.95;14.35;;;;;;;3.66;100.00;93684.84;5010330;28;20503;-60
2023/04/20 00:25:15;;;;;;;12.57;7.60;;;;;;;3.71;100.00;93679.09;5010726;28;20052;-60
2023/04/20 00:27:43;;;;;;;12.98;7.18;;;;;;;3.52;100.00;93663.03;5010363;28;20042;-60
2023/04/20 00:30:10;;;;;;;12.75;7.00;;;;;;;3.69;100.00;93662.41;5010868;28;20124;-60
2023/04/20 00:32:37;;;;;;;12.52;7.35;;;;;;;3.72;100.00;93648.09;5010433;28;20053;-60
2023/04/20 00:35:04;;;;;;;14.25;7.35;;;;;;;3.78;100.00;93640.34;5005410;28;20046;-60
2023/04/20 00:37:31;;;;;;;12.23;7.50;;;;;;;3.77;100.00;93636.09;4990630;28;20050;-60
2023/04/20 00:39:57;;;;;;;12.02;7.13;;;;;;;3.74;100.00;93628.69;5001684;28;20037;-60
2023/04/20 00:42:24;;;;;;;13.10;7.22;;;;;;;3.69;100.00;93631.78;5008791;28;20108;-60
2023/04/20 00:44:51;;;;;;;13.55;7.38;;;;;;;3.73;100.00;93630.63;5010181;28;20038;-60
2023/04/20 00:47:17;;;;;;;13.45;7.78;;;;;;;3.72;100.00;93625.56;5010445;28;20050;-60
2023/04/20 00:49:44;;;;;;;12.97;7.80;;;;;;;3.68;100.00;93622.06;5010103;28;20049;-60
2023/04/20 00:52:11;;;;;;;15.40;8.48;;;;;;;3.65;100.00;93625.56;5010095;28;20046;-60
2023/04/20 00:54:38;;;;;;;14.18;8.25;;;;;;;3.69;100.00;93615.50;5008492;28;20064;-60
2023/04/20 00:57:05;;;;;;;13.80;8.05;;;;;;;3.61;100.00;93617.38;5010112;28;20057;-60
2023/04/20 00:59:32;;;;;;;13.82;8.30;;;;;;;3.54;100.00;93607.28;5009850;28;20042;-60
2023/04/20 01:01:58;;;;;;;14.47;8.27;;;;;;;3.44;100.00;93612.59;5010358;28;20045;-60
2023/04/20 01:04:25;;;;;;;13.82;8.10;;;;;;;3.53;100.00;93597.56;5009956;28;20437;-60
2023/04/20 01:06:52;;;;;;;13.50;8.27;;;;;;;3.54;100.00;93601.03;5009767;28;20042;-60
2023/04/20 01:09:19;;;;;;;14.07;8.43;;;;;;;3.59;100.00;93601.47;5010068;28;20046;-60
2023/04/20 01:11:46;;;;;;;24.83;14.32;;;;;;;3.54;100.00;93591.00;5009172;28;20072;-60
2023/04/20 01:14:13;;;;;;;16.40;9.50;;;;;;;3.00;100.00;93589.84;5010186;28;20075;-60
2023/04/20 01:16:40;;;;;;;15.60;9.13;;;;;;;2.75;100.00;93595.03;5009337;28;20042;-60
2023/04/20 01:19:06;;;;;;;15.77;9.70;;;;;;;2.58;100.00;93596.44;5009956;28;20049;-60
2023/04/20 01:21:33;;;;;;;14.35;8.40;;;;;;;2.92;100.00;93593.66;5009525;28;20057;-60
2023/04/20 01:24:00;;;;;;;16.23;8.77;;;;;;;3.18;100.00;93585.31;5009997;28;20456;-60
2023/04/20 01:26:27;;;;;;;15.90;8.50;;;;;;;3.23;100.00;93586.91;5009820;28;20042;-60
2023/04/20 01:28:53;;;;;;;15.38;9.10;;;;;;;3.10;100.00;93572.88;5009466;28;20042;-60
2023/04/20 01:31:20;;;;;;;14.15;8.07;;;;;;;3.30;100.00;93580.75;5009585;28;20053;-60
2023/04/20 01:33:48;;;;;;;14.20;8.25;;;;;;;3.37;100.00;93564.53;5009357;28;20049;-60
2023/04/20 01:36:14;;;;;;;14.52;8.15;;;;;;;3.43;100.00;93570.38;4994352;28;20487;-60
2023/04/20 01:38:41;;;;;;;14.50;8.60;;;;;;;3.19;100.00;93575.25;4989771;28;20050;-60
2023/04/20 01:41:09;;;;;;;15.82;8.65;;;;;;;3.13;100.00;93577.53;5009210;28;20042;-60
2023/04/20 01:43:37;;;;;;;15.43;9.07;;;;;;;3.19;100.00;93567.13;5009440;28;20072;-60
2023/04/20 01:46:05;;;;;;;17.08;9.48;;;;;;;3.03;100.00;93569.31;5009519;28;20049;-60
2023/04/20 01:48:32;;;;;;;15.30;9.32;;;;;;;3.14;100.00;93562.03;5009232;28;20050;-60
2023/04/20 01:50:58;;;;;;;14.40;8.53;;;;;;;3.16;100.00;93546.97;5009526;28;20046;-60
2023/04/20 01:53:25;;;;;;;15.35;9.57;;;;;;;2.70;100.00;93547.38;5009367;28;20103;-60
2023/04/20 01:55:52;;;;;;;17.63;10.77;;;;;;;2.68;100.00;93544.28;5007469;28;20050;-60
2023/04/20 01:58:19;;;;;;;15.77;9.20;;;;;;;2.83;100.00;93533.56;5009522;28;20041;-60
2023/04/20 02:00:46;;;;;;;15.38;9.30;;;;;;;3.02;100.00;93530.59;5009068;28;20564;-60
2023/04/20 02:03:12;;;;;;;17.53;9.10;;;;;;;3.15;100.00;93531.84;5009385;28;20064;-60
2023/04/20 02:05:39;;;;;;;16.20;9.57;;;;;;;3.07;100.00;93532.94;5007490;28;20049;-60
2023/04/20 02:08:06;;;;;;;17.58;9.55;;;;;;;3.23;100.00;93529.19;5009451;28;20048;-60
2023/04/20 02:10:33;;;;;;;13.98;8.55;;;;;;;3.20;100.00;93530.72;5008808;28;20361;-60
2023/04/20 02:12:59;;;;;;;16.17;9.05;;;;;;;3.22;100.00;93524.91;5009148;28;20045;-60
2023/04/20 02:15:26;;;;;;;15.23;8.83;;;;;;;3.25;100.00;93527.66;5009520;28;20112;-60
2023/04/20 02:17:53;;;;;;;13.98;8.80;;;;;;;3.21;100.00;93526.84;5008639;28;20042;-60
2023/04/20 02:20:20;;;;;;;15.80;9.52;;;;;;;2.87;100.00;93526.22;5009245;28;20183;-60
2023/04/20 02:22:47;;;;;;;16.58;9.27;;;;;;;2.92;100.00;93520.47;5008664;28;20042;-60
2023/04/20 02:25:14;;;;;;;14.65;8.88;;;;;;;3.17;100.00;93518.69;5011203;28;20048;-60
2023/04/20 02:27:40;;;;;;;16.60;8.97;;;;;;;3.25;100.00;93507.88;5013074;28;20038;-60
2023/04/20 02:30:08;;;;;;;14.50;8.48;;;;;;;3.25;100.00;93505.94;5013385;28;20414;-60
2023/04/20 02:32:35;;;;;;;15.13;8.35;;;;;;;3.28;100.00;93513.34;5012485;28;20073;-60
2023/04/20 02:35:03;;;;;;;15.13;8.60;;;;;;;3.38;100.00;93501.78;4993804;28;20046;-61
2023/04/20 02:37:30;;;;;;;34.08;18.60;;;;;;;3.30;100.00;93502.88;4993112;28;20046;-60
2023/04/20 02:39:57;;;;;;;22.47;12.87;;;;;;;3.26;100.00;93504.81;5004048;28;20038;-60
2023/04/20 02:42:23;;;;;;;14.43;8.23;;;;;;;3.33;100.00;93504.84;5011427;28;20042;-60
2023/04/20 02:44:51;;;;;;;14.00;9.15;;;;;;;3.26;100.00;93506.72;5012599;28;20570;-60
2023/04/20 02:47:18;;;;;;;13.60;8.00;;;;;;;2.93;100.00;93497.63;5012753;28;20483;-59
2023/04/20 02:49:46;;;;;;;15.95;8.82;;;;;;;2.99;100.00;93502.31;5012587;28;20046;-60
2023/04/20 02:52:13;;;;;;;15.43;8.80;;;;;;;3.12;100.00;93508.22;5011280;28;20095;-60
2023/04/20 02:54:40;;;;;;;14.43;8.35;;;;;;;3.32;100.00;93503.28;5012409;28;20073;-60
2023/04/20 02:57:07;;;;;;;15.10;8.95;;;;;;;3.27;100.00;93509.06;5012537;28;20057;-58
2023/04/20 02:59:33;;;;;;;14.70;8.80;;;;;;;3.31;100.00;93504.44;5012196;28;20046;-59
2023/04/20 03:02:00;;;;;;;15.00;9.25;;;;;;;3.44;100.00;93502.19;5012626;28;20050;-59
2023/04/20 03:04:27;;;;;;;15.73;8.67;;;;;;;3.45;100.00;93500.25;5012569;28;20050;-59
2023/04/20 03:06:54;;;;;;;14.43;8.68;;;;;;;3.39;100.00;93495.16;5011455;28;20637;-59
2023/04/20 03:09:21;;;;;;;15.13;8.73;;;;;;;3.23;100.00;93493.94;5012025;28;20092;-59
2023/04/20 03:11:49;;;;;;;14.80;8.88;;;;;;;3.04;100.00;93490.34;5011873;28;20368;-59
2023/04/20 03:14:16;;;;;;;15.63;9.13;;;;;;;3.07;100.00;93481.44;5012512;28;20041;-59
2023/04/20 03:16:42;;;;;;;16.77;9.83;;;;;;;3.20;100.00;93485.41;5011699;28;20038;-58
2023/04/20 03:19:09;;;;;;;17.10;9.10;;;;;;;3.35;100.00;93483.53;5012085;28;20041;-59
2023/04/20 03:21:36;;;;;;;17.27;8.98;;;;;;;3.40;100.00;93477.75;5009902;28;20107;-59
2023/04/20 03:24:03;;;;;;;14.70;8.88;;;;;;;3.34;100.00;93471.13;5012092;28;20048;-59
2023/04/20 03:26:30;;;;;;;14.60;8.80;;;;;;;3.40;100.00;93469.63;5011487;28;20045;-58
2023/04/20 03:28:57;;;;;;;13.83;8.77;;;;;;;3.46;100.00;93463.81;5012024;28;20438;-59
2023/04/20 03:31:24;;;;;;;16.67;9.70;;;;;;;3.56;100.00;93468.50;5011713;28;20454;-59
2023/04/20 03:33:50;;;;;;;18.45;10.52;;;;;;;3.59;100.00;93463.09;5011458;28;20103;-59
2023/04/20 03:36:17;;;;;;;21.10;11.45;;;;;;;3.32;100.00;93459.91;5010379;28;20410;-59
2023/04/20 03:38:44;;;;;;;18.95;10.55;;;;;;;3.22;100.00;93454.41;5011083;28;20067;-59
2023/04/20 03:41:10;;;;;;;16.67;9.73;;;;;;;3.38;100.00;93455.66;5011377;28;20042;-59
2023/04/20 03:43:37;;;;;;;17.23;9.75;;;;;;;3.17;100.00;93455.53;5010914;28;20089;-59
2023/04/20 03:46:04;;;;;;;15.50;8.60;;;;;;;3.20;100.00;93450.16;5011555;28;20046;-59
2023/04/20 03:48:31;;;;;;;17.17;9.57;;;;;;;2.91;100.00;93443.00;5011183;28;20048;-59
2023/04/20 03:50:58;;;;;;;16.20;9.75;;;;;;;3.03;100.00;93439.97;5011467;28;20068;-59
2023/04/20 03:53:25;;;;;;;16.53;9.53;;;;;;;3.28;100.00;93437.41;5011640;28;20045;-59
2023/04/20 03:55:51;;;;;;;14.68;8.75;;;;;;;3.34;100.00;93425.03;5010861;28;20053;-59
2023/04/20 03:58:18;;;;;;;14.20;8.20;;;;;;;3.12;100.00;93426.88;5011556;28;20076;-59
2023/04/20 04:00:45;;;;;;;14.02;8.45;;;;;;;2.83;100.00;93428.63;5010923;28;20045;-59
2023/04/20 04:03:12;;;;;;;13.25;7.97;;;;;;;3.19;100.00;93426.13;5010147;28;20654;-59
2023/04/20 04:05:41;;;;;;;14.40;8.13;;;;;;;3.30;100.00;93429.66;5008952;28;20048;-59
2023/04/20 04:08:08;;;;;;;14.88;8.30;;;;;;;3.30;100.00;93432.38;4993814;28;20046;-58
2023/04/20 04:10:35;;;;;;;14.52;8.82;;;;;;;2.96;100.00;93435.31;4998772;28;20038;-59
2023/04/20 04:13:02;;;;;;;12.93;7.95;;;;;;;3.15;100.00;93431.53;5009735;28;20521;-59
2023/04/20 04:15:28;;;;;;;14.45;8.73;;;;;;;3.30;100.00;93442.44;5011011;28;20046;-59
2023/04/20 04:17:55;;;;;;;14.60;8.77;;;;;;;3.38;100.00;93441.28;5010267;28;20394;-59
2023/04/20 04:20:22;;;;;;;16.10;8.70;;;;;;;3.43;100.00;93443.66;5011206;28;20540;-59
2023/04/20 04:22:48;;;;;;;15.25;8.52;;;;;;;3.34;100.00;93441.31;5009178;28;20045;-59
2023/04/20 04:25:16;;;;;;;16.90;8.65;;;;;;;3.42;100.00;93444.84;5010983;28;20061;-59
2023/04/20 04:27:45;;;;;;;13.70;8.27;;;;;;;3.47;100.00;93438.25;5010207;28;20359;-59
2023/04/20 04:30:12;;;;;;;14.83;8.20;;;;;;;3.56;100.00;93434.03;5009646;28;20046;-59
2023/04/20 04:32:40;;;;;;;14.80;8.77;;;;;;;3.57;100.00;93432.09;5010563;28;20072;-59
2023/04/20 04:35:07;;;;;;;14.18;8.60;;;;;;;3.54;100.00;93433.63;5010299;28;20597;-59
2023/04/20 04:37:34;;;;;;;14.73;8.55;;;;;;;3.48;100.00;93427.03;5010212;28;20061;-59
2023/04/20 04:40:01;;;;;;;16.73;8.80;;;;;;;3.53;100.00;93428.59;5010484;28;20050;-59
2023/04/20 04:42:29;;;;;;;15.47;9.17;;;;;;;3.64;100.00;93436.75;5009888;28;20052;-59
2023/04/20 04:44:57;;;;;;;14.27;8.50;;;;;;;3.61;100.00;93432.88;4990061;28;20080;-59
2023/04/20 04:47:24;;;;;;;16.35;10.07;;;;;;;3.48;100.00;93437.09;5009838;28;20057;-59
2023/04/20 04:49:51;;;;;;;14.40;8.55;;;;;;;3.43;100.00;93430.09;5010008;28;20103;-58
2023/04/20 04:52:17;;;;;;;19.13;9.75;;;;;;;3.32;100.00;93435.50;5010242;28;20041;-58
2023/04/20 04:54:44;;;;;;;16.00;9.50;;;;;;;3.49;100.00;93439.41;5009795;28;20049;-59
2023/04/20 04:57:11;;;;;;;16.17;8.68;;;;;;;3.59;100.00;93433.25;5010166;28;20052;-59
2023/04/20 04:59:38;;;;;;;16.67;9.77;;;;;;;3.53;100.00;93436.72;5008343;28;20044;-59
2023/04/20 05:02:04;;;;;;;16.63;9.52;;;;;;;3.71;100.00;93434.06;5009780;28;20038;-58
2023/04/20 05:04:31;;;;;;;14.55;8.80;;;;;;;3.75;100.00;93435.63;5009401;28;20117;-59
2023/04/20 05:06:58;;;;;;;16.00;9.63;;;;;;;3.69;100.00;93431.72;5009690;28;20038;-59
2023/04/20 05:09:25;;;;;;;16.25;9.27;;;;;;;3.53;100.00;93431.31;5008618;28;20072;-59
2023/04/20 05:11:52;;;;;;;16.52;8.70;;;;;;;3.65;100.00;93430.19;5009375;28;20041;-59
2023/04/20 05:14:18;;;;;;;15.23;9.68;;;;;;;3.50;100.00;93434.75;5009964;28;20056;-58
2023/04/20 05:16:45;;;;;;;15.20;9.15;;;;;;;3.65;100.00;93436.38;5009427;28;20410;-58
2023/04/20 05:19:12;;;;;;;17.80;10.17;;;;;;;3.47;100.00;93424.69;5009716;28;20057;-59
2023/04/20 05:21:39;;;;;;;17.88;9.77;;;;;;;3.51;100.00;93431.69;5009212;28;20038;-60
2023/04/20 05:24:06;;;;;;;16.92;10.70;;;;;;;3.32;100.00;93435.50;5009314;28;20038;-59
2023/04/20 05:26:32;;;;;;;18.38;9.82;;;;;;;3.40;100.00;93441.69;5007365;28;20052;-59
2023/04/20 05:29:00;;;;;;;19.02;10.70;;;;;;;3.43;100.00;93435.53;5009125;28;20048;-59
2023/04/20 05:31:27;;;;;;;16.03;9.43;;;;;;;3.62;100.00;93445.25;5009190;28;20046;-59
2023/04/20 05:33:54;;;;;;;17.35;9.40;;;;;;;3.42;100.00;93433.19;5008156;28;21815;-59
2023/04/20 05:36:21;;;;;;;17.42;9.95;;;;;;;3.51;100.00;93442.53;5008823;28;20050;-59
2023/04/20 05:38:47;;;;;;;17.33;9.77;;;;;;;3.62;100.00;93437.13;5008132;28;20057;-59
2023/04/20 05:41:14;;;;;;;18.38;10.02;;;;;;;3.63;100.00;93427.84;5006583;28;20061;-59
2023/04/20 05:43:41;;;;;;;15.20;9.63;;;;;;;3.80;100.00;93418.97;5007451;28;20489;-59
2023/04/20 05:46:07;;;;;;;16.80;9.80;;;;;;;3.78;100.00;93432.16;4997667;28;20049;-59
2023/04/20 05:48:34;;;;;;;19.83;10.30;;;;;;;3.64;100.00;93429.38;4986814;28;20049;-59
2023/04/20 05:51:01;;;;;;;15.63;9.40;;;;;;;3.59;100.00;93427.06;4999722;28;20042;-59
2023/04/20 05:53:27;;;;;;;15.93;9.00;;;;;;;3.65;100.00;93427.47;5008595;28;20034;-59
2023/04/20 05:55:54;;;;;;;18.43;9.90;;;;;;;3.68;100.00;93426.69;5007416;28;20730;-59
2023/04/20 05:58:21;;;;;;;17.92;10.02;;;;;;;3.50;100.00;93421.19;4994074;28;20072;-59
2023/04/20 06:00:47;;;;;;;16.63;9.68;;;;;;;3.72;100.00;93425.56;5000790;28;20076;-59
2023/04/20 06:03:15;;;;;;;16.73;9.90;;;;;;;3.76;100.00;93426.34;4988336;28;20103;-59
2023/04/20 06:05:42;;;;;;;16.42;9.95;;;;;;;3.78;100.00;93412.38;5001516;28;20046;-59
2023/04/20 06:08:09;;;;;;;18.40;9.07;;;;;;;3.57;100.00;93421.22;5007896;28;20085;-59
2023/04/20 06:10:36;;;;;;;18.48;9.52;;;;;;;3.72;100.00;93424.75;5007319;28;20046;-59
2023/04/20 06:13:03;;;;;;;17.33;9.00;;;;;;;3.82;100.00;93421.28;5007589;28;20045;-59
2023/04/20 06:15:29;;;;;;;16.90;9.30;;;;;;;3.86;100.00;93424.00;5007409;28;20049;-59
2023/04/20 06:17:56;;;;;;;15.25;9.32;;;;;;;3.92;100.00;93422.47;5007732;28;20049;-59
2023/04/20 06:20:23;;;;;;;15.97;8.93;;;;;;;3.92;100.00;93417.03;5007925;28;20296;-59
2023/04/20 06:22:50;;;;;;;16.42;9.27;;;;;;;3.77;100.00;93413.53;5007131;28;20053;-59
2023/04/20 06:25:16;;;;;;;16.73;9.05;;;;;;;3.90;100.00;93420.13;5008007;28;20152;-59
2023/04/20 06:27:43;;;;;;;16.90;9.00;;;;;;;3.99;100.00;93406.97;5007199;28;20123;-59
2023/04/20 06:30:10;;;;;;;15.52;9.20;;;;;;;3.68;100.00;93408.50;5008007;28;20046;-59
2023/04/20 06:32:37;;;;;;;17.13;9.80;;;;;;;3.68;100.00;93416.63;5005929;28;20498;-59
2023/04/20 06:35:05;;;;;;;15.30;9.27;;;;;;;3.53;100.00;93404.94;5007781;28;20050;-59
2023/04/20 06:37:34;;;;;;;15.70;9.20;;;;;;;3.75;100.00;93396.84;5007278;28;20057;-59
2023/04/20 06:40:06;;;;;;;17.70;9.40;;;;;;;3.77;100.00;93400.72;5007712;28;20049;-59
2023/04/20 06:42:33;;;;;;;16.85;10.43;;;;;;;3.42;100.00;93406.06;5006777;28;20046;-59
2023/04/20 06:45:00;;;;;;;18.33;9.53;;;;;;;3.54;100.00;93403.00;5006481;28;20046;-59
2023/04/20 06:47:30;;;;;;;16.17;9.80;;;;;;;3.17;100.00;93418.34;5007443;28;20038;-59
2023/04/20 06:49:58;;;;;;;15.82;9.60;;;;;;;3.23;100.00;93405.22;5006609;28;21152;-58
2023/04/20 06:52:25;;;;;;;15.35;9.40;;;;;;;3.62;100.00;93403.78;5006061;28;20056;-59
2023/04/20 06:54:52;;;;;;;14.82;9.18;;;;;;;3.65;100.00;93398.38;5005696;28;20052;-60
2023/04/20 06:57:19;;;;;;;14.30;8.27;;;;;;;3.67;100.00;93398.00;5007431;28;20091;-59
2023/04/20 06:59:45;;;;;;;15.95;9.85;;;;;;;3.30;100.00;93402.56;5006850;28;20556;-59
2023/04/20 07:02:12;;;;;;;14.65;9.13;;;;;;;3.36;100.00;93395.59;5007782;28;20042;-59
2023/04/20 07:04:39;;;;;;;13.55;8.40;;;;;;;3.46;100.00;93402.22;5007516;28;20084;-59
2023/04/20 07:07:06;;;;;;;14.73;8.85;;;;;;;3.82;100.00;93405.00;5007322;28;20414;-58
2023/04/20 07:09:33;;;;;;;16.70;8.97;;;;;;;3.38;100.00;93406.84;5006990;28;20054;-59
2023/04/20 07:11:59;;;;;;;17.67;9.30;;;;;;;3.43;100.00;93402.97;5010499;28;20450;-59
2023/04/20 07:14:26;;;;;;;15.32;8.70;;;;;;;3.56;100.00;93396.03;5011271;28;20046;-59
2023/04/20 07:16:53;;;;;;;16.48;9.35;;;;;;;3.81;100.00;93398.03;5010753;28;20050;-59
2023/04/20 07:19:20;;;;;;;16.60;9.35;;;;;;;3.81;100.00;93403.47;5011142;28;20487;-59
2023/04/20 07:21:47;;;;;;;17.67;9.10;;;;;;;3.65;100.00;93405.75;5008994;28;20049;-59
2023/04/20 07:24:13;;;;;;;15.38;8.68;;;;;;;3.66;100.00;93401.88;5010935;28;20164;-59
2023/04/20 07:26:40;;;;;;;15.45;9.15;;;;;;;3.92;100.00;93398.81;5010436;28;20419;-59
2023/04/20 07:29:07;;;;;;;14.00;8.52;;;;;;;3.75;100.00;93396.84;5010531;28;20054;-59
2023/04/20 07:31:33;;;;;;;15.43;9.25;;;;;;;3.91;100.00;93401.94;5003307;28;20046;-59
2023/04/20 07:34:01;;;;;;;14.90;8.13;;;;;;;3.51;100.00;93401.84;4992485;28;20076;-59
2023/04/20 07:36:28;;;;;;;15.98;8.38;;;;;;;3.64;100.00;93391.38;5008488;28;20050;-59
2023/04/20 07:38:55;;;;;;;15.55;9.30;;;;;;;3.94;100.00;93395.72;5009791;28;20926;-58
2023/04/20 07:41:22;;;;;;;17.30;8.93;;;;;;;3.70;100.00;93389.09;5010432;28;20049;-59
2023/04/20 07:43:48;;;;;;;15.98;8.65;;;;;;;3.69;100.00;93385.59;5010355;28;20045;-59
2023/04/20 07:46:20;;;;;;;15.20;8.73;;;;;;;3.56;100.00;93395.25;5010622;28;20054;-59
2023/04/20 07:48:47;;;;;;;20.92;10.00;;;;;;;3.88;100.00;93391.84;5010031;28;20111;-59
2023/04/20 07:51:14;;;;;;;16.33;9.10;;;;;;;3.77;100.00;93391.81;5010516;28;20046;-59
2023/04/20 07:53:43;;;;;;;13.27;8.38;;;;;;;4.10;100.00;93398.84;5009868;28;20050;-59
2023/04/20 07:56:09;;;;;;;15.63;10.02;;;;;;;4.20;100.00;93405.44;5010685;28;20107;-59
2023/04/20 07:58:37;;;;;;;13.77;8.40;;;;;;;4.34;100.00;93402.72;5009870;28;20038;-59
2023/04/20 08:01:05;;;;;;;15.32;9.18;;;;;;;4.21;100.00;93404.28;5010184;28;20042;-59
2023/04/20 08:03:32;;;;;;;14.02;9.23;;;;;;;4.30;100.00;93403.91;5009428;28;20046;-59
2023/04/20 08:05:59;;;;;;;13.50;8.80;;;;;;;4.35;100.00;93408.97;5010072;28;20052;-58
2023/04/20 08:08:26;;;;;;;15.07;9.27;;;;;;;4.47;100.00;93408.56;5009998;28;20058;-58
2023/04/20 08:10:57;;;;;;;14.47;8.73;;;;;;;4.23;100.00;93401.19;5009641;28;20042;-58
2023/04/20 08:13:26;;;;;;;14.88;8.85;;;;;;;3.84;100.00;93402.69;5010263;28;20080;-58
2023/04/20 08:15:53;;;;;;;13.20;8.48;;;;;;;4.27;100.00;93393.81;5009486;28;20088;-58
2023/04/20 08:18:20;;;;;;;13.90;8.55;;;;;;;3.39;100.00;93402.19;5010191;28;20528;-59
2023/04/20 08:20:47;;;;;;;12.95;8.07;;;;;;;3.31;100.00;93395.94;5009488;28;20108;-58
2023/04/20 08:23:13;;;;;;;14.83;8.50;;;;;;;3.75;100.00;93392.19;5009151;28;20450;-59
2023/04/20 08:25:40;;;;;;;12.48;7.85;;;;;;;4.06;100.00;93384.47;5009353;28;20075;-58
2023/04/20 08:28:07;;;;;;;12.82;7.63;;;;;;;3.76;100.00;93390.25;5009583;28;20406;-58
2023/04/20 08:30:39;;;;;;;12.38;7.47;;;;;;;3.48;100.00;93388.25;5009224;28;20095;-58
2023/04/20 08:33:06;;;;;;;13.35;8.32;;;;;;;3.74;100.00;93381.72;5009464;28;20107;-58
2023/04/20 08:35:33;;;;;;;13.23;7.83;;;;;;;4.29;100.00;93389.53;5009010;28;20038;-59
2023/04/20 08:38:00;;;;;;;12.13;7.25;;;;;;;4.36;100.00;93384.09;5009434;28;20058;-58
2023/04/20 08:40:28;;;;;;;11.00;6.63;;;;;;;4.85;100.00;93391.81;5009585;28;20657;-59
2023/04/20 08:42:56;;;;;;;10.73;6.43;;;;;;;4.63;100.00;93388.34;4990280;28;20524;-58
2023/04/20 08:45:22;;;;;;;11.35;7.57;;;;;;;4.79;100.00;93394.94;4995102;28;20045;-58
2023/04/20 08:47:49;;;;;;;10.57;7.00;;;;;;;4.88;100.00;93394.53;5009135;28;20045;-59
2023/04/20 08:50:18;;;;;;;10.68;7.03;;;;;;;4.09;100.00;93400.00;5009291;28;20403;-58
2023/04/20 08:52:45;;;;;;;11.20;6.63;;;;;;;4.00;100.00;93397.69;5008869;28;20052;-59
2023/04/20 08:55:18;;;;;;;10.57;6.47;;;;;;;4.19;100.00;93401.19;5009099;28;20064;-59
2023/04/20 08:57:48;;;;;;;10.38;6.40;;;;;;;4.34;100.00;93405.44;5008851;28;20057;-59
2023/04/20 09:00:16;;;;;;;10.40;6.53;;;;;;;4.20;100.00;93400.81;5008941;28;20583;-59
2023/04/20 09:02:53;;;;;;;11.77;6.65;;;;;;;4.95;100.00;93413.56;5008891;28;20042;-59
2023/04/20 09:05:30;;;;;;;8.27;5.35;;;;;;;3.68;100.00;93403.06;5008800;28;20440;-59
2023/04/20 09:07:59;;;;;;;8.65;5.43;;;;;;;4.62;100.00;93403.88;5008310;28;21466;-58
2023/04/20 09:10:38;;;;;;;9.13;5.70;;;;;;;5.18;100.00;93393.28;5009126;28;20072;-59
2023/04/20 09:13:05;;;;;;;8.90;5.80;;;;;;;5.64;100.00;93400.47;5008261;28;21497;-59
2023/04/20 09:15:32;;;;;;;9.40;5.80;;;;;;;5.93;100.00;93392.16;5008553;28;20038;-59
2023/04/20 09:17:58;;;;;;;9.93;5.90;;;;;;;6.19;100.00;93386.16;5008782;28;20046;-59
2023/04/20 09:20:28;;;;;;;7.88;5.28;;;;;;;6.10;100.00;93380.41;5008507;28;20096;-59
2023/04/20 09:22:55;;;;;;;8.25;5.90;;;;;;;5.02;100.00;93385.56;5008528;28;20049;-59
2023/04/20 09:25:25;;;;;;;8.37;5.87;;;;;;;4.25;100.00;93388.78;5008890;28;20054;-59
2023/04/20 09:28:00;;;;;;;10.27;6.60;;;;;;;5.03;100.00;93387.13;5007874;28;20849;-59
2023/04/20 09:30:41;;;;;;;7.80;5.43;;;;;;;5.67;100.00;93377.13;5008608;28;20053;-59
2023/04/20 09:33:09;;;;;;;9.65;5.45;;;;;;;6.38;100.00;93373.97;5006352;28;20038;-59
2023/04/20 09:35:44;;;;;;;8.30;6.05;;;;;;;7.02;100.00;93362.84;5008332;28;20040;-59
2023/04/20 09:38:15;;;;;;;7.53;4.93;;;;;;;5.97;100.00;93368.41;5008844;28;20173;-58
2023/04/20 09:40:42;;;;;;;7.50;5.07;;;;;;;6.48;100.00;93357.91;5006090;28;20045;-59
2023/04/20 09:43:19;;;;;;;7.18;5.20;;;;;;;7.32;100.00;93353.91;4988833;28;20108;-59
2023/04/20 09:45:46;;;;;;;7.88;5.22;;;;;;;7.96;100.00;93346.84;4996908;28;20058;-58
2023/04/20 09:48:17;;;;;;;8.43;5.70;;;;;;;8.42;100.00;93350.09;5008347;28;20353;-59
2023/04/20 09:50:45;;;;;;;7.90;5.70;;;;;;;8.14;100.00;93344.63;5008290;28;20088;-59
2023/04/20 09:53:17;;;;;;;5.65;4.10;;;;;;;7.14;100.00;93341.28;5008297;28;20048;-59
2023/04/20 09:55:48;;;;;;;5.72;4.15;;;;;;;8.14;100.00;93335.66;5007909;28;20442;-58
2023/04/20 09:58:19;;;;;;;6.35;4.50;;;;;;;7.96;100.00;93338.66;5008231;28;20556;-59
2023/04/20 10:00:47;;;;;;;7.65;5.20;;;;;;;8.26;100.00;93334.28;5007788;28;20037;-59
2023/04/20 10:03:18;;;;;;;6.30;4.63;;;;;;;8.70;100.00;93340.63;5008199;28;20637;-59
2023/04/20 10:05:45;;;;;;;6.32;4.45;;;;;;;8.08;100.00;93335.34;5007516;28;20449;-59
2023/04/20 10:08:12;;;;;;;7.85;4.85;;;;;;;7.98;100.00;93328.84;5007868;28;20499;-58
2023/04/20 10:10:46;;;;;;;6.70;4.40;;;;;;;8.04;100.00;93331.13;5007524;28;20048;-59
2023/04/20 10:13:13;;;;;;;5.55;3.70;;;;;;;8.03;100.00;93313.16;5008257;28;20056;-59
2023/04/20 10:15:41;;;;;;;5.80;3.53;;;;;;;8.66;100.00;93329.75;5007676;28;20041;-59
2023/04/20 10:18:34;;;;;;;4.57;3.30;;;;;;;7.45;100.00;93314.00;5008165;28;20050;-59
2023/04/20 10:21:09;;;;;;;5.28;3.85;;;;;;;7.67;100.00;93310.97;4991567;28;20663;-59
2023/04/20 10:23:49;;;;;;;4.40;2.95;;;;;;;7.12;100.00;93315.56;5007621;28;20042;-59
2023/04/20 10:26:16;;;;;;;4.63;3.00;;;;;;;7.06;100.00;93306.28;5008210;28;20060;-59
2023/04/20 10:28:43;;;;;;;5.13;2.80;;;;;;;7.83;100.00;93311.13;5007709;28;20054;-59
2023/04/20 10:31:12;;;;;;;4.50;3.05;;;;;;;8.52;100.00;93311.63;4994929;28;20491;-59
2023/04/20 10:33:54;;;;;;;3.65;2.47;;;;;;;7.62;100.00;93306.72;5007463;28;20052;-59
2023/04/20 10:36:29;;;;;;;4.05;2.70;;;;;;;7.54;100.00;93316.97;4995897;28;20489;-59
2023/04/20 10:38:57;;;;;;;4.68;2.92;;;;;;;6.63;100.00;93323.13;5007314;28;20786;-59
2023/04/20 10:41:24;;;;;;;4.80;3.17;;;;;;;6.27;100.00;93321.47;5001332;28;20043;-58
2023/04/20 10:43:51;;;;;;;5.03;3.35;;;;;;;6.74;100.00;93327.28;4988948;28;20034;-59
2023/04/20 10:46:20;;;;;;;3.90;2.70;;;;;;;6.39;100.00;93317.50;5008495;28;20046;-59
2023/04/20 10:48:52;;;;;;;4.03;2.60;;;;;;;6.67;100.00;93324.63;5011169;28;20052;-59
2023/04/20 10:51:19;;;;;;;3.95;2.75;;;;;;;5.74;100.00;93334.31;5011734;28;20050;-58
2023/04/20 10:54:04;;;;;;;4.73;2.60;;;;;;;6.01;100.00;93325.59;5011233;28;20046;-59
2023/04/20 10:56:37;;;;;;;4.00;2.55;;;;;;;5.94;100.00;93318.22;4998388;28;20042;-59
2023/04/20 10:59:08;;;;;;;4.50;2.85;;;;;;;5.39;100.00;93327.91;5011043;28;20058;-59
2023/04/20 11:01:35;;;;;;;4.93;2.88;;;;;;;5.60;100.00;93316.09;4998848;28;20058;-58
2023/04/20 11:04:03;;;;;;;4.68;2.92;;;;;;;5.42;100.00;93331.00;5011436;28;20175;-58
2023/04/20 11:06:30;;;;;;;4.23;2.90;;;;;;;5.11;100.00;93320.66;5011147;28;20160;-58
2023/04/20 11:08:57;;;;;;;5.13;2.83;;;;;;;5.50;100.00;93316.19;5010896;28;20076;-59
2023/04/20 11:11:28;;;;;;;4.85;3.13;;;;;;;6.06;100.00;93316.22;5011286;28;20054;-59
2023/04/20 11:14:06;;;;;;;5.50;4.10;;;;;;;6.19;100.00;93323.50;5009408;28;21780;-59
2023/04/20 11:16:34;;;;;;;5.05;3.45;;;;;;;5.52;100.00;93327.44;5010854;28;20048;-59
2023/04/20 11:19:24;;;;;;;4.63;3.13;;;;;;;5.46;100.00;93318.16;5011432;28;20056;-59
2023/04/20 11:21:52;;;;;;;4.88;3.33;;;;;;;5.28;100.00;93323.69;5011001;28;20045;-59
2023/04/20 11:24:29;;;;;;;4.85;3.20;;;;;;;5.14;100.00;93333.44;5011316;28;20045;-58
2023/04/20 11:26:57;;;;;;;4.50;2.92;;;;;;;5.13;100.00;93321.03;5009947;28;20612;-58
2023/04/20 11:29:32;;;;;;;6.22;4.32;;;;;;;4.37;100.00;93323.19;5010915;28;20194;-59